EPSYEPGD

Guest
Details From EPSY - SZYMANY
To EPGD - LECH WALESA
Flight Number -
Tags decoded
Created
Modified
Stats Distance 102 nm / 190 km
Max Altitude 0 ft / 0 m
Waypoints 2
Social Downloads 0
Likes 0
Share VATSIM

Download

Looking for another format? Having issues loading an existing format? Contact us
Advertisement - Login to hide

Notes

Requested: EPSY EPGD

Route

EPSY EPGD

ID Type Via Altitude (ft/m) Position (lat/lon) Dist (leg/tot) Name
O EPSY APT - 0 / 0 53.47973 / 20.93650 - / 0 nm SZYMANY
O EPGD APT - 0 / 0 54.37617 / 18.47188 102 / 102 nm LECH WALESA

Altitude Profile

Advertisement - Login to hide

EPSY

Details ICAO EPSY (SZY)
Name SZYMANY
Region Poland
Timezone Europe/Warsaw (UTC+2.0)
Stats Elevation 463 ft / 141 m (AMSL)
Location 53.479700° 20.936500°
Runways 1
Magnetic Variation 6.127° E

METAR

EPSY 170800Z VRB02KT 6000 NSC 09/07 Q1023

Decode

TAF

Not found

Departure Runways

ID Width Length Bearing (true/mag) Surface Threshold Overrun Markings Lighting
02 197 ft / 60 m 6,556 ft / 1,998 m 18.43° / 12.30° CONCRETE 0 ft / 0 m 0 ft / 0 m PREC-APP EDGE THRESHOLD CALVERT
20 197 ft / 60 m 6,556 ft / 1,998 m 198.43° / 192.31° CONCRETE 0 ft / 0 m 0 ft / 0 m APP EDGE THRESHOLD MALS

EPGD

Details ICAO EPGD (GDN)
Name Gdansk Lech Walesa
Region Poland
Timezone Europe/Warsaw (UTC+2.0)
Stats Elevation 488 ft / 149 m (AMSL)
Location 54.376200° 18.471900°
Runways 1
Magnetic Variation 5.566° E

METAR

EPGD 170800Z VRB01KT CAVOK 13/08 Q1021

Decode

TAF

TAF EPGD 170530Z 1706/1806 18004KT CAVOK PROB40 1800/1806 3000 BR

Decode

Destination Runways

ID Width Length Bearing (true/mag) Surface Threshold Overrun Markings Lighting
11 148 ft / 45 m 9,162 ft / 2,793 m 112.97° / 107.41° ASPHALT 0 ft / 0 m 0 ft / 0 m PREC-APP CENTERLINE EDGE THRESHOLD ALSF-II REIL-OMNI
29 148 ft / 45 m 9,162 ft / 2,793 m 293.01° / 287.44° ASPHALT 0 ft / 0 m 0 ft / 0 m PREC-APP CENTERLINE EDGE THRESHOLD ALSF-II REIL-OMNI

Approach Navaids

Runway Type Ident Frequency Range Bearing (true/mag) Slope Elevation
29 LOC-ILS IGDA 110.30 MHz 18 nm / 33 km 292.96° / 287.40 ° - 489 ft / 149 m (AMSL)
29 GS IGDA 110.30 MHz 10 nm / 19 km 293.96° / 288.39 ° 2.90° 489 ft / 149 m (AMSL)
29 DME IGDA 110.30 MHz 18 nm / 33 km - - 492 ft / 150 m (AMSL)
29 OM OM - - 292.98° / 287.41 ° - 489 ft / 149 m (AMSL)

Popular Alternatives